createdAt,value
2022-10-05T00:02:47.745Z,5.07
2022-10-05T00:05:34.559Z,3.35
2022-10-05T00:08:23.997Z,4.18
2022-10-05T00:11:14.477Z,3.72
2022-10-05T00:14:00.555Z,10.00
2022-10-05T00:16:47.413Z,5.57
2022-10-05T00:19:36.588Z,4.68
2022-10-05T00:22:28.861Z,7.45
2022-10-05T00:25:21.806Z,5.15
2022-10-05T00:28:41.345Z,6.33
2022-10-05T00:31:32.868Z,7.05
2022-10-05T00:34:19.207Z,3.60
2022-10-05T00:37:06.193Z,7.15
2022-10-05T00:39:52.544Z,6.25
2022-10-05T00:42:44.068Z,6.18
2022-10-05T00:45:37.993Z,3.25
2022-10-05T00:48:53.104Z,6.35
2022-10-05T00:51:41.261Z,3.70
2022-10-05T00:54:46.925Z,3.97
2022-10-05T00:57:48.102Z,9.20
2022-10-05T01:00:46.558Z,5.63
2022-10-05T01:03:48.109Z,3.95
2022-10-05T01:06:40.801Z,5.05
2022-10-05T01:09:44.476Z,3.75
2022-10-05T01:12:43.506Z,5.70
2022-10-05T01:16:02.465Z,4.60
2022-10-05T01:19:05.633Z,2.58
2022-10-05T01:22:25.252Z,2.50
2022-10-05T01:25:25.088Z,2.95
2022-10-05T01:28:18.700Z,6.55
2022-10-05T01:31:21.556Z,4.78
2022-10-05T01:34:34.125Z,6.57
2022-10-05T01:37:26.185Z,9.85
2022-10-05T01:40:31.950Z,4.55
2022-10-05T01:43:41.136Z,4.70
2022-10-05T01:46:42.105Z,5.45
2022-10-05T01:49:41.856Z,2.90
2022-10-05T01:52:36.545Z,3.17
2022-10-05T01:55:49.226Z,5.43
2022-10-05T01:59:16.224Z,9.95
2022-10-05T02:02:07.994Z,6.63
2022-10-05T02:05:01.855Z,5.35
2022-10-05T02:07:54.256Z,3.28
2022-10-05T02:11:06.323Z,3.75
2022-10-05T02:14:00.412Z,4.47
2022-10-05T02:16:54.027Z,4.35
2022-10-05T02:19:42.324Z,6.15
2022-10-05T02:22:45.973Z,6.07
2022-10-05T02:25:40.867Z,4.35
2022-10-05T02:28:41.168Z,3.65
2022-10-05T02:31:39.755Z,8.48
2022-10-05T02:34:30.541Z,5.35
2022-10-05T02:37:34.791Z,5.28
2022-10-05T02:40:49.346Z,4.63
2022-10-05T02:44:09.933Z,7.85
2022-10-05T02:47:10.821Z,5.25
2022-10-05T02:50:35.732Z,4.70
2022-10-05T02:56:26.285Z,5.15
2022-10-05T02:59:19.880Z,4.50
2022-10-05T03:05:15.901Z,7.88
2022-10-05T03:08:07.065Z,5.57
2022-10-05T03:11:25.366Z,5.03
2022-10-05T03:14:25.441Z,5.90
2022-10-05T03:17:19.138Z,6.53
2022-10-05T03:20:18.627Z,5.80
2022-10-05T03:23:14.022Z,4.10
2022-10-05T03:26:18.433Z,5.75
2022-10-05T03:29:26.312Z,4.90
2022-10-05T03:32:25.505Z,5.50
2022-10-05T03:35:34.702Z,4.45
2022-10-05T03:38:28.450Z,5.93
2022-10-05T03:41:28.649Z,5.45
2022-10-05T03:44:49.671Z,12.13
2022-10-05T03:47:52.100Z,5.60
2022-10-05T03:51:09.067Z,9.30
2022-10-05T03:54:00.870Z,5.18
2022-10-05T03:56:51.918Z,10.82
2022-10-05T03:59:54.550Z,7.10
2022-10-05T04:02:59.744Z,5.10
2022-10-05T04:05:55.134Z,4.35
2022-10-05T04:08:56.470Z,9.98
2022-10-05T04:11:52.703Z,5.72
2022-10-05T04:14:46.701Z,6.85
2022-10-05T04:18:19.261Z,4.50
2022-10-05T04:21:30.663Z,6.07
2022-10-05T04:24:40.643Z,7.00
2022-10-05T04:27:36.753Z,6.63
2022-10-05T04:30:26.094Z,6.82
2022-10-05T04:33:40.197Z,3.80
2022-10-05T04:36:33.744Z,6.85
2022-10-05T04:39:32.058Z,8.75
2022-10-05T04:42:28.747Z,6.40
2022-10-05T04:45:37.800Z,7.22
2022-10-05T04:49:03.499Z,9.43
2022-10-05T04:52:17.891Z,6.03
2022-10-05T04:55:37.433Z,5.07
2022-10-05T04:58:26.571Z,6.53
2022-10-05T05:01:22.381Z,6.07
2022-10-05T05:04:42.957Z,8.18
2022-10-05T05:07:44.935Z,5.80
2022-10-05T05:10:52.669Z,9.43
2022-10-05T05:14:04.572Z,5.82
2022-10-05T05:17:13.661Z,9.45
2022-10-05T05:20:00.039Z,8.57
2022-10-05T05:23:02.171Z,6.03
2022-10-05T05:26:00.281Z,7.45
2022-10-05T05:28:55.643Z,6.10
2022-10-05T05:31:45.651Z,3.63
2022-10-05T05:34:56.652Z,7.00
2022-10-05T05:38:18.445Z,12.20
2022-10-05T05:41:08.405Z,7.75
2022-10-05T05:44:25.785Z,9.25
2022-10-05T05:47:28.304Z,11.73
2022-10-05T05:50:53.313Z,6.72
2022-10-05T05:53:50.939Z,7.70
2022-10-05T05:56:50.002Z,4.63
2022-10-05T06:00:00.756Z,7.00
2022-10-05T06:02:54.672Z,11.70
2022-10-05T06:05:52.680Z,5.82
2022-10-05T06:08:51.810Z,4.07
2022-10-05T06:11:54.459Z,3.80
2022-10-05T06:15:13.642Z,7.25
2022-10-05T06:18:08.725Z,6.70
2022-10-05T06:20:59.823Z,9.98
2022-10-05T06:24:21.323Z,7.55
2022-10-05T06:27:16.351Z,5.57
2022-10-05T06:30:07.739Z,5.53
2022-10-05T06:33:10.336Z,5.63
2022-10-05T06:36:30.347Z,6.53
2022-10-05T06:39:40.984Z,7.22
2022-10-05T06:42:34.977Z,4.88
2022-10-05T06:46:36.254Z,4.97
2022-10-05T06:50:16.192Z,6.05
2022-10-05T06:53:45.981Z,4.90
2022-10-05T06:56:49.794Z,6.50
2022-10-05T07:00:01.282Z,11.27
2022-10-05T07:03:12.302Z,8.13
2022-10-05T07:06:14.042Z,5.35
2022-10-05T07:09:26.939Z,9.55
2022-10-05T07:12:46.725Z,6.60
2022-10-05T07:15:42.265Z,7.78
2022-10-05T07:18:57.152Z,7.40
2022-10-05T07:21:55.250Z,8.18
2022-10-05T07:24:49.954Z,4.22
2022-10-05T07:27:49.523Z,4.78
2022-10-05T07:30:48.093Z,5.05
2022-10-05T07:33:51.452Z,6.95
2022-10-05T07:37:09.254Z,7.80
2022-10-05T07:40:26.928Z,5.05
2022-10-05T07:43:22.004Z,5.70
2022-10-05T07:46:17.661Z,5.07
2022-10-05T07:49:15.365Z,14.75
2022-10-05T07:52:24.251Z,5.70
2022-10-05T07:55:44.213Z,4.80
2022-10-05T07:58:46.763Z,4.93
2022-10-05T08:01:36.758Z,4.97
2022-10-05T08:04:37.017Z,5.30
2022-10-05T08:07:29.618Z,6.00
2022-10-05T08:10:45.304Z,7.63
2022-10-05T08:14:00.214Z,10.73
2022-10-05T08:16:48.673Z,6.55
2022-10-05T08:19:46.896Z,6.88
2022-10-05T08:22:47.552Z,11.13
2022-10-05T08:25:55.396Z,7.72
2022-10-05T08:28:51.708Z,7.50
2022-10-05T08:31:40.941Z,8.20
2022-10-05T08:34:34.859Z,6.68
2022-10-05T08:37:24.905Z,4.38
2022-10-05T08:40:48.792Z,9.32
2022-10-05T08:44:11.645Z,5.30
2022-10-05T08:46:58.112Z,7.68
2022-10-05T08:50:08.226Z,6.75
2022-10-05T08:53:04.207Z,8.07
2022-10-05T08:56:19.073Z,5.00
2022-10-05T08:59:26.315Z,10.43
2022-10-05T09:02:41.540Z,6.18
2022-10-05T09:05:45.199Z,8.00
2022-10-05T09:08:37.219Z,4.32
2022-10-05T09:11:45.899Z,6.07
2022-10-05T09:15:13.627Z,6.45
2022-10-05T09:18:22.876Z,7.07
2022-10-05T09:21:14.796Z,7.82
2022-10-05T09:24:13.903Z,4.82
2022-10-05T09:27:09.972Z,4.90
2022-10-05T09:30:18.071Z,8.93
2022-10-05T09:33:42.256Z,5.35
2022-10-05T09:37:07.028Z,6.13
2022-10-05T09:40:12.440Z,8.00
2022-10-05T09:43:24.595Z,6.93
2022-10-05T09:46:16.773Z,5.88
2022-10-05T09:49:38.863Z,9.38
2022-10-05T09:52:33.596Z,6.20
2022-10-05T09:55:50.305Z,6.78
2022-10-05T09:58:48.220Z,6.60
2022-10-05T10:01:53.590Z,8.15
2022-10-05T10:05:26.645Z,6.75
2022-10-05T10:08:20.381Z,9.10
2022-10-05T10:11:28.066Z,9.07
2022-10-05T10:14:50.653Z,6.43
2022-10-05T10:17:54.992Z,7.57
2022-10-05T10:21:03.322Z,7.15
2022-10-05T10:24:14.979Z,9.52
2022-10-05T10:27:32.240Z,11.57
2022-10-05T10:30:44.732Z,11.23
2022-10-05T10:33:57.178Z,8.63
2022-10-05T10:36:43.848Z,8.82
2022-10-05T10:39:57.953Z,5.03
2022-10-05T10:42:56.263Z,5.55
2022-10-05T10:46:00.596Z,7.20
2022-10-05T10:48:59.894Z,8.30
2022-10-05T10:51:58.108Z,7.35
2022-10-05T10:55:25.263Z,8.52
2022-10-05T10:58:34.903Z,10.10
2022-10-05T11:01:42.197Z,12.65
2022-10-05T11:04:40.078Z,9.50
2022-10-05T11:07:53.155Z,12.98
2022-10-05T11:10:48.832Z,14.33
2022-10-05T11:14:08.415Z,9.98
2022-10-05T11:17:00.997Z,8.25
2022-10-05T11:20:11.760Z,6.57
2022-10-05T11:23:15.133Z,9.48
2022-10-05T11:26:13.483Z,4.47
2022-10-05T11:29:02.373Z,8.80
2022-10-05T11:32:00.812Z,8.35
2022-10-05T11:34:57.636Z,9.27
2022-10-05T11:38:06.569Z,15.50
2022-10-05T11:40:58.766Z,6.65
2022-10-05T11:43:47.526Z,7.38
2022-10-05T11:47:10.251Z,10.93
2022-10-05T11:50:06.616Z,8.25
2022-10-05T11:53:15.119Z,11.43
2022-10-05T11:56:19.403Z,8.38
2022-10-05T11:59:14.756Z,6.78
2022-10-05T12:02:27.172Z,7.28
2022-10-05T12:05:25.002Z,7.07
2022-10-05T12:08:23.759Z,9.25
2022-10-05T12:11:34.196Z,7.97
2022-10-05T12:14:55.560Z,5.80
2022-10-05T12:17:48.481Z,4.63
2022-10-05T12:21:19.895Z,8.45
2022-10-05T12:24:16.503Z,11.80
2022-10-05T12:27:06.553Z,6.78
2022-10-05T12:30:10.840Z,7.03
2022-10-05T12:33:08.151Z,12.48
2022-10-05T12:36:18.734Z,8.50
2022-10-05T12:39:32.821Z,8.82
2022-10-05T12:42:42.003Z,6.50
2022-10-05T12:45:47.146Z,8.75
2022-10-05T12:48:53.056Z,8.27
2022-10-05T12:52:01.536Z,7.57
2022-10-05T12:55:26.126Z,5.20
2022-10-05T12:58:29.680Z,8.52
2022-10-05T13:01:21.611Z,3.97
2022-10-05T13:04:28.775Z,8.77
2022-10-05T13:07:48.036Z,7.65
2022-10-05T13:10:48.041Z,9.98
2022-10-05T13:13:40.584Z,6.80
2022-10-05T13:16:57.127Z,9.60
2022-10-05T13:19:51.197Z,9.73
2022-10-05T13:22:44.585Z,8.95
2022-10-05T13:26:03.089Z,8.88
2022-10-05T13:29:11.411Z,11.70
2022-10-05T13:32:09.876Z,16.85
2022-10-05T13:34:58.809Z,16.20
2022-10-05T13:38:04.564Z,9.85
2022-10-05T13:41:31.687Z,11.38
2022-10-05T13:44:24.149Z,16.52
2022-10-05T13:47:37.803Z,10.80
2022-10-05T13:50:32.692Z,11.47
2022-10-05T13:53:29.099Z,9.13
2022-10-05T13:56:26.076Z,8.95
2022-10-05T13:59:46.087Z,10.30
2022-10-05T14:02:40.160Z,8.02
2022-10-05T14:05:28.881Z,9.30
2022-10-05T14:08:25.802Z,10.00
2022-10-05T14:11:26.536Z,9.73
2022-10-05T14:14:28.088Z,13.80
2022-10-05T14:17:17.356Z,6.85
2022-10-05T14:20:34.363Z,4.05
2022-10-05T14:23:29.004Z,4.18
2022-10-05T14:26:35.919Z,4.10
2022-10-05T14:29:35.821Z,3.35
2022-10-05T14:32:27.011Z,2.22
2022-10-05T14:35:18.393Z,1.85
2022-10-05T14:38:26.442Z,4.60
2022-10-05T14:41:18.143Z,1.42
2022-10-05T14:44:13.670Z,2.53
2022-10-05T14:47:23.746Z,4.45
2022-10-05T14:50:18.291Z,3.53
2022-10-05T14:53:41.692Z,2.13
2022-10-05T14:56:52.338Z,1.52
2022-10-05T15:00:03.421Z,2.40
2022-10-05T15:02:59.646Z,1.40
2022-10-05T15:05:58.894Z,3.33
2022-10-05T15:08:59.600Z,3.55
2022-10-05T15:11:55.677Z,3.20
2022-10-05T15:14:46.820Z,2.10
2022-10-05T15:18:01.282Z,1.45
2022-10-05T15:20:56.392Z,5.20
2022-10-05T15:23:57.587Z,3.22
2022-10-05T15:26:54.285Z,3.53
2022-10-05T15:29:42.395Z,2.35
2022-10-05T15:32:49.897Z,2.08
2022-10-05T15:35:54.420Z,3.03
2022-10-05T15:39:06.158Z,2.50
2022-10-05T15:41:55.317Z,3.17
2022-10-05T15:45:07.727Z,1.92
2022-10-05T15:48:06.594Z,1.83
2022-10-05T15:51:01.323Z,1.30
2022-10-05T15:54:19.391Z,3.10
2022-10-05T15:57:21.091Z,2.10
2022-10-05T16:00:15.823Z,2.70
2022-10-05T16:03:05.828Z,1.55
2022-10-05T16:06:35.619Z,1.90
2022-10-05T16:09:37.708Z,4.50
2022-10-05T16:13:07.478Z,3.63
2022-10-05T16:16:19.226Z,3.13
2022-10-05T16:19:19.204Z,5.57
2022-10-05T16:22:14.071Z,4.35
2022-10-05T16:25:08.433Z,3.63
2022-10-05T16:31:06.924Z,5.22
2022-10-05T16:34:02.659Z,4.45
2022-10-05T16:37:28.159Z,1.65
2022-10-05T16:44:02.541Z,2.70
2022-10-05T16:47:13.066Z,3.08
2022-10-05T16:50:11.881Z,2.38
2022-10-05T16:53:23.721Z,3.15
2022-10-05T16:56:14.787Z,5.03
2022-10-05T16:59:25.324Z,6.78
2022-10-05T17:02:40.469Z,3.65
2022-10-05T17:06:06.851Z,6.28
2022-10-05T17:09:20.725Z,3.80
2022-10-05T17:12:15.445Z,3.72
2022-10-05T17:15:16.562Z,3.15
2022-10-05T17:18:23.328Z,3.58
2022-10-05T17:21:15.546Z,2.38
2022-10-05T17:24:34.291Z,4.20
2022-10-05T17:27:35.710Z,4.30
2022-10-05T17:30:54.170Z,2.75
2022-10-05T17:34:10.462Z,3.67
2022-10-05T17:37:15.838Z,4.13
2022-10-05T17:40:38.160Z,8.38
2022-10-05T17:43:28.177Z,5.47
2022-10-05T17:46:45.577Z,3.08
2022-10-05T17:50:13.205Z,2.40
2022-10-05T17:53:40.616Z,5.30
2022-10-05T17:56:27.232Z,7.03
2022-10-05T17:59:12.240Z,7.47
2022-10-05T18:02:36.542Z,5.43
2022-10-05T18:05:29.024Z,4.10
2022-10-05T18:08:16.611Z,5.93
2022-10-05T18:11:08.631Z,7.13
2022-10-05T18:14:24.507Z,4.15
2022-10-05T18:17:13.045Z,4.63
2022-10-05T18:20:24.334Z,4.63
2022-10-05T18:23:10.991Z,5.93
2022-10-05T18:26:15.992Z,5.53
2022-10-05T18:29:14.102Z,5.32
2022-10-05T18:32:09.825Z,8.05
2022-10-05T18:35:11.732Z,6.43
2022-10-05T18:38:04.286Z,9.20
2022-10-05T18:41:10.426Z,5.38
2022-10-05T18:44:06.143Z,4.10
2022-10-05T18:47:06.388Z,5.65
2022-10-05T18:50:21.690Z,6.78
2022-10-05T18:53:35.823Z,5.47
2022-10-05T18:56:37.859Z,3.53
2022-10-05T18:59:36.738Z,9.20
2022-10-05T19:02:37.854Z,8.40
2022-10-05T19:05:52.098Z,10.10
2022-10-05T19:09:12.367Z,4.25
2022-10-05T19:12:13.141Z,8.70
2022-10-05T19:15:24.638Z,5.80
2022-10-05T19:18:21.551Z,4.57
2022-10-05T19:21:28.345Z,6.65
2022-10-05T19:24:39.802Z,8.77
2022-10-05T19:27:54.428Z,8.90
2022-10-05T19:31:12.345Z,8.77
2022-10-05T19:34:16.653Z,10.90
2022-10-05T19:37:27.291Z,6.22
2022-10-05T19:40:43.356Z,9.32
2022-10-05T19:43:57.093Z,8.57
2022-10-05T19:47:09.420Z,5.95
2022-10-05T19:49:57.651Z,8.85
2022-10-05T19:52:49.834Z,11.30
2022-10-05T19:55:42.388Z,6.47
2022-10-05T19:58:31.743Z,9.05
2022-10-05T20:01:25.741Z,10.32
2022-10-05T20:04:11.968Z,9.35
2022-10-05T20:06:59.454Z,10.18
2022-10-05T20:10:14.924Z,12.90
2022-10-05T20:13:03.532Z,12.40
2022-10-05T20:16:47.547Z,6.45
2022-10-05T20:19:52.010Z,6.65
2022-10-05T20:22:43.303Z,6.53
2022-10-05T20:25:31.160Z,12.88
2022-10-05T20:28:31.673Z,8.82
2022-10-05T20:31:20.048Z,13.38
2022-10-05T20:34:06.476Z,9.45
2022-10-05T20:36:52.684Z,10.73
2022-10-05T20:39:39.243Z,10.10
2022-10-05T20:42:26.771Z,10.30
2022-10-05T20:45:14.041Z,9.95
2022-10-05T20:48:00.150Z,12.27
2022-10-05T20:50:47.263Z,12.60
2022-10-05T20:53:34.145Z,17.17
2022-10-05T20:56:20.137Z,16.95
2022-10-05T20:59:06.376Z,10.73
2022-10-05T21:01:52.646Z,11.02
2022-10-05T21:04:41.519Z,14.68
2022-10-05T21:07:28.092Z,13.20
2022-10-05T21:10:14.343Z,15.10
2022-10-05T21:13:02.825Z,12.43
2022-10-05T21:15:49.385Z,9.85
2022-10-05T21:18:35.708Z,13.82
2022-10-05T21:21:21.933Z,7.15
2022-10-05T21:24:09.732Z,13.30
2022-10-05T21:26:57.468Z,9.70
2022-10-05T21:29:44.753Z,16.30
2022-10-05T21:32:31.245Z,16.85
2022-10-05T21:35:17.118Z,15.23
2022-10-05T21:38:03.232Z,11.40
2022-10-05T21:40:49.843Z,13.75
2022-10-05T21:43:36.424Z,17.02
2022-10-05T21:46:27.480Z,12.55
2022-10-05T21:49:17.567Z,17.20
2022-10-05T21:52:05.976Z,15.60
2022-10-05T21:54:52.392Z,13.13
2022-10-05T21:57:38.912Z,18.00
2022-10-05T22:00:24.878Z,15.15
2022-10-05T22:03:10.791Z,14.65
2022-10-05T22:05:56.838Z,11.73
2022-10-05T22:08:43.278Z,17.48
2022-10-05T22:11:29.691Z,15.05
2022-10-05T22:14:16.151Z,9.55
2022-10-05T22:17:02.584Z,15.27
2022-10-05T22:19:48.829Z,15.55
2022-10-05T22:22:35.146Z,16.10
2022-10-05T22:25:22.087Z,11.30
2022-10-05T22:28:11.867Z,14.93
2022-10-05T22:30:58.982Z,17.55
2022-10-05T22:33:44.913Z,15.35
2022-10-05T22:36:30.938Z,14.15
2022-10-05T22:39:17.840Z,18.65
2022-10-05T22:42:05.756Z,11.77
2022-10-05T22:44:51.614Z,10.40
2022-10-05T22:47:37.485Z,8.93
2022-10-05T22:50:23.476Z,15.25
2022-10-05T22:53:09.296Z,18.15
2022-10-05T22:55:55.243Z,12.40
2022-10-05T22:58:42.192Z,7.35
2022-10-05T23:01:28.319Z,10.13
2022-10-05T23:04:14.408Z,14.95
2022-10-05T23:07:00.653Z,14.82
2022-10-05T23:09:46.537Z,8.18
2022-10-05T23:12:34.519Z,12.35
2022-10-05T23:15:20.996Z,14.02
2022-10-05T23:18:06.802Z,11.07
2022-10-05T23:20:54.481Z,8.63
2022-10-05T23:23:43.593Z,10.73
2022-10-05T23:26:31.483Z,16.92
2022-10-05T23:29:17.744Z,8.85
2022-10-05T23:32:04.340Z,12.23
2022-10-05T23:34:50.176Z,9.95
2022-10-05T23:37:44.478Z,8.57
2022-10-05T23:40:30.894Z,8.85
2022-10-05T23:43:17.226Z,15.77
2022-10-05T23:46:05.772Z,13.82
2022-10-05T23:48:53.229Z,15.02
2022-10-05T23:51:39.257Z,17.00
2022-10-05T23:54:25.836Z,12.48
2022-10-05T23:57:16.896Z,18.13
